Time;durP1;ratioP1;P1;durP2;ratioP2;P2;SDS_P1;SDS_P2;PMS_P1;PMS_P2;Temp;Humidity;BMP_temperature;BMP_pressure;BME280_temperature;BME280_humidity;BME280_pressure;Samples;Min_cycle;Max_cycle;Signal;HPM_P1;HPM_P2
2022/03/03 00:02:23;;;;;;;82.17;44.45;;;;;;;1.55;68.99;94251.87;1532612;91;21022;-50
2022/03/03 00:04:51;;;;;;;84.40;45.33;;;;;;;1.59;68.85;94249.11;1532351;93;21797;-49
2022/03/03 00:07:18;;;;;;;81.28;43.95;;;;;;;1.55;68.76;94248.38;1540089;92;21014;-50
2022/03/03 00:09:45;;;;;;;77.95;44.75;;;;;;;1.54;68.98;94245.48;1537369;92;21220;-49
2022/03/03 00:12:13;;;;;;;88.15;50.25;;;;;;;1.55;68.80;94241.03;1520818;91;20994;-48
2022/03/03 00:14:41;;;;;;;95.28;53.30;;;;;;;1.48;68.77;94239.72;1534688;92;21006;-50
2022/03/03 00:17:08;;;;;;;76.72;44.27;;;;;;;1.44;69.07;94240.34;1530515;91;21548;-50
2022/03/03 00:19:36;;;;;;;95.60;48.65;;;;;;;1.45;69.32;94235.11;1529875;91;21335;-50
2022/03/03 00:22:04;;;;;;;78.15;41.33;;;;;;;1.37;69.06;94232.30;1526716;93;21170;-49
2022/03/03 00:24:32;;;;;;;64.10;38.05;;;;;;;1.27;69.35;94231.79;1530806;91;21042;-49
2022/03/03 00:27:01;;;;;;;97.33;53.20;;;;;;;1.18;69.33;94228.76;1533193;93;21022;-49
2022/03/03 00:29:29;;;;;;;90.25;48.35;;;;;;;1.11;69.83;94229.43;1536331;92;21828;-49
2022/03/03 00:31:57;;;;;;;87.02;46.33;;;;;;;1.21;69.93;94226.63;1526613;91;21079;-50
2022/03/03 00:34:24;;;;;;;73.60;41.60;;;;;;;1.24;69.68;94220.41;1529488;93;21179;-49
2022/03/03 00:36:51;;;;;;;63.92;35.35;;;;;;;1.26;69.69;94212.64;1531690;91;21182;-50
2022/03/03 00:39:18;;;;;;;48.35;30.02;;;;;;;1.26;69.76;94211.86;1530075;91;21024;-50
2022/03/03 00:41:45;;;;;;;45.55;27.32;;;;;;;1.28;69.71;94217.08;1531194;91;21061;-50
2022/03/03 00:44:14;;;;;;;35.00;22.55;;;;;;;1.30;69.56;94210.67;1528067;91;21054;-49
2022/03/03 00:46:42;;;;;;;31.90;20.75;;;;;;;1.36;69.81;94212.36;1529074;91;22315;-49
2022/03/03 00:49:09;;;;;;;29.20;20.02;;;;;;;1.53;69.54;94214.14;1521036;93;21015;-49
2022/03/03 00:51:36;;;;;;;23.22;15.50;;;;;;;1.60;68.83;94209.41;1531699;92;21157;-49
2022/03/03 00:54:03;;;;;;;16.93;13.53;;;;;;;1.58;68.70;94210.41;1529049;92;21107;-50
2022/03/03 00:56:31;;;;;;;16.45;12.37;;;;;;;1.64;68.64;94207.43;1523960;92;20994;-50
2022/03/03 00:58:58;;;;;;;19.25;12.35;;;;;;;1.74;68.07;94205.20;1529193;93;22345;-49
2022/03/03 01:01:27;;;;;;;16.10;12.00;;;;;;;1.73;67.46;94198.22;1531898;92;21122;-49
2022/03/03 01:03:55;;;;;;;14.10;11.00;;;;;;;1.71;67.73;94197.86;1531566;92;21139;-49
2022/03/03 01:06:23;;;;;;;14.47;10.55;;;;;;;1.76;67.64;94195.48;1534703;92;21027;-50
2022/03/03 01:08:53;;;;;;;18.45;12.73;;;;;;;1.84;67.27;94183.97;1531005;92;21498;-49
2022/03/03 01:11:21;;;;;;;14.50;11.43;;;;;;;1.89;67.01;94195.72;1539831;91;21129;-49
2022/03/03 01:13:48;;;;;;;15.65;11.45;;;;;;;1.87;67.11;94199.42;1533375;93;21472;-49
2022/03/03 01:16:16;;;;;;;14.53;10.30;;;;;;;1.91;67.10;94189.30;1530554;92;21513;-49
2022/03/03 01:18:43;;;;;;;13.93;10.48;;;;;;;1.98;66.83;94196.02;1530817;92;21012;-49
2022/03/03 01:21:10;;;;;;;16.00;11.35;;;;;;;1.98;66.40;94186.52;1524096;94;21011;-50
2022/03/03 01:23:37;;;;;;;15.45;11.48;;;;;;;1.95;66.41;94183.27;1528890;91;21138;-49
2022/03/03 01:26:07;;;;;;;19.80;14.78;;;;;;;1.90;66.36;94178.27;1530021;91;21064;-50
2022/03/03 01:28:34;;;;;;;33.13;20.57;;;;;;;1.86;66.67;94185.68;1539214;91;21217;-50
2022/03/03 01:31:02;;;;;;;46.23;25.65;;;;;;;1.87;66.81;94185.86;1525127;91;21114;-48
2022/03/03 01:33:29;;;;;;;57.98;33.25;;;;;;;1.79;66.86;94179.00;1527071;92;20996;-49
2022/03/03 01:35:58;;;;;;;63.38;35.13;;;;;;;1.67;67.21;94179.52;1526933;91;21918;-56
2022/03/03 01:38:25;;;;;;;68.20;36.98;;;;;;;1.62;67.61;94178.61;1525686;92;21136;-50
2022/03/03 01:40:54;;;;;;;81.02;40.88;;;;;;;1.57;67.92;94183.69;1526945;93;21002;-49
2022/03/03 01:43:22;;;;;;;81.82;43.00;;;;;;;1.51;68.26;94179.30;1528597;91;21016;-49
2022/03/03 01:45:50;;;;;;;78.65;41.95;;;;;;;1.45;68.57;94178.20;1524790;91;21191;-51
2022/03/03 01:48:17;;;;;;;78.47;40.33;;;;;;;1.42;68.56;94176.31;1525528;92;21154;-51
2022/03/03 01:50:45;;;;;;;83.70;44.05;;;;;;;1.42;68.82;94182.30;1523057;92;21175;-50
2022/03/03 01:53:12;;;;;;;89.75;45.30;;;;;;;1.40;69.02;94173.23;1503999;94;21158;-50
2022/03/03 01:55:39;;;;;;;85.32;43.23;;;;;;;1.45;68.84;94177.42;1525973;92;21662;-54
2022/03/03 01:58:07;;;;;;;78.33;40.65;;;;;;;1.43;69.00;94172.42;1531398;92;21079;-50
2022/03/03 02:00:35;;;;;;;76.77;42.05;;;;;;;1.41;68.84;94169.35;1536074;92;21583;-49
2022/03/03 02:03:03;;;;;;;62.25;33.78;;;;;;;1.34;69.03;94163.23;1534238;91;21224;-50
2022/03/03 02:05:30;;;;;;;58.50;33.05;;;;;;;1.30;69.27;94166.57;1535417;91;21069;-50
2022/03/03 02:07:59;;;;;;;56.70;30.40;;;;;;;1.27;69.43;94168.70;1529373;92;21560;-51
2022/03/03 02:10:29;;;;;;;52.83;29.12;;;;;;;1.25;69.48;94162.92;1525310;91;21058;-49
2022/03/03 02:12:56;;;;;;;49.73;29.77;;;;;;;1.22;69.67;94162.37;1526949;91;21593;-49
2022/03/03 02:15:24;;;;;;;43.75;27.58;;;;;;;1.23;69.69;94159.28;1528537;91;21106;-50
2022/03/03 02:17:52;;;;;;;47.43;27.98;;;;;;;1.22;69.68;94161.80;1530460;93;21015;-50
2022/03/03 02:20:24;;;;;;;50.17;27.00;;;;;;;1.26;69.87;94163.10;1523557;91;22016;-49
2022/03/03 02:22:53;;;;;;;55.70;30.05;;;;;;;1.28;69.79;94154.02;1525144;91;21057;-51
2022/03/03 02:25:21;;;;;;;50.35;29.65;;;;;;;1.28;69.76;94152.06;1534555;93;21198;-49
2022/03/03 02:27:48;;;;;;;47.08;27.22;;;;;;;1.30;69.77;94154.37;1534667;91;21208;-49
2022/03/03 02:30:17;;;;;;;51.45;29.70;;;;;;;1.28;69.64;94154.77;1536399;91;21500;-49
2022/03/03 02:32:45;;;;;;;56.13;33.40;;;;;;;1.25;69.89;94163.70;1534974;91;21114;-50
2022/03/03 02:35:13;;;;;;;48.90;30.62;;;;;;;1.22;70.00;94149.61;1539056;91;21005;-49
2022/03/03 02:37:42;;;;;;;60.33;33.53;;;;;;;1.26;70.08;94146.28;1537206;93;21183;-49
2022/03/03 02:40:14;;;;;;;54.25;31.82;;;;;;;1.22;70.09;94146.91;1531217;91;21028;-52
2022/03/03 02:42:42;;;;;;;52.20;30.60;;;;;;;1.21;70.17;94149.44;1529407;92;21014;-50
2022/03/03 02:45:09;;;;;;;50.60;29.00;;;;;;;1.19;70.17;94144.22;1530895;91;21806;-50
2022/03/03 02:47:41;;;;;;;50.55;30.77;;;;;;;1.15;70.36;94148.31;1528375;91;21084;-49
2022/03/03 02:50:10;;;;;;;45.60;26.17;;;;;;;1.18;70.65;94149.45;1532560;92;21199;-49
2022/03/03 02:52:39;;;;;;;44.90;26.93;;;;;;;1.27;70.50;94138.91;1531258;93;21059;-49
2022/03/03 02:55:07;;;;;;;40.12;23.73;;;;;;;1.25;70.19;94146.09;1532135;92;21558;-49
2022/03/03 03:00:25;;;;;;;39.13;23.35;;;;;;;1.14;70.31;94132.48;1529563;91;21059;-49
2022/03/03 03:02:52;;;;;;;42.33;24.10;;;;;;;1.14;70.44;94145.42;1527338;91;21125;-50
2022/03/03 03:05:19;;;;;;;35.73;21.97;;;;;;;1.17;70.79;94133.02;1532882;92;21526;-51
2022/03/03 03:07:47;;;;;;;47.20;26.05;;;;;;;1.31;70.85;94135.00;1535879;93;21050;-50
2022/03/03 03:10:14;;;;;;;58.78;34.20;;;;;;;1.50;70.42;94135.75;1531409;91;21074;-54
2022/03/03 03:12:42;;;;;;;45.15;28.45;;;;;;;1.59;69.78;94130.63;1530508;91;21092;-50
2022/03/03 03:15:09;;;;;;;43.90;26.95;;;;;;;1.65;69.89;94126.30;1528714;92;21216;-49
2022/03/03 03:17:37;;;;;;;47.20;29.00;;;;;;;1.71;69.42;94134.15;1528819;91;21076;-49
2022/03/03 03:20:06;;;;;;;44.70;27.13;;;;;;;1.69;69.03;94132.44;1531773;92;21098;-49
2022/03/03 03:22:35;;;;;;;39.88;26.12;;;;;;;1.62;69.18;94131.17;1529540;91;21053;-49
2022/03/03 03:25:05;;;;;;;48.40;28.70;;;;;;;1.52;69.03;94140.18;1530107;91;21186;-50
2022/03/03 03:27:33;;;;;;;41.85;24.95;;;;;;;1.47;69.68;94148.76;1529359;92;21177;-49
2022/03/03 03:30:00;;;;;;;42.48;25.45;;;;;;;1.55;69.46;94149.45;1528491;91;21460;-50
2022/03/03 03:32:28;;;;;;;50.33;27.77;;;;;;;1.52;69.41;94134.77;1529284;92;21538;-50
2022/03/03 03:34:55;;;;;;;40.48;24.87;;;;;;;1.50;69.29;94135.75;1527799;93;21065;-49
2022/03/03 03:37:22;;;;;;;36.63;24.75;;;;;;;1.46;69.33;94140.45;1526233;93;21023;-49
2022/03/03 03:39:50;;;;;;;42.40;26.10;;;;;;;1.40;69.57;94143.43;1529215;93;21912;-49
2022/03/03 03:42:17;;;;;;;40.40;26.12;;;;;;;1.38;69.77;94145.77;1532385;93;21089;-50
2022/03/03 03:44:44;;;;;;;44.40;26.35;;;;;;;1.39;69.72;94137.83;1529898;92;21090;-50
2022/03/03 03:47:13;;;;;;;44.63;25.70;;;;;;;1.36;69.64;94139.21;1532380;91;21064;-50
2022/03/03 03:49:41;;;;;;;42.73;25.85;;;;;;;1.28;69.93;94137.16;1530502;91;20991;-50
2022/03/03 03:52:08;;;;;;;38.45;26.02;;;;;;;1.29;70.09;94139.30;1528641;92;22375;-50
2022/03/03 03:54:36;;;;;;;42.15;23.52;;;;;;;1.28;70.15;94133.09;1533160;92;21532;-49
2022/03/03 03:57:04;;;;;;;44.08;26.10;;;;;;;1.28;70.07;94134.45;1534785;91;21503;-51
2022/03/03 03:59:33;;;;;;;53.90;32.38;;;;;;;1.24;70.07;94135.66;1530574;92;21113;-49
2022/03/03 04:02:01;;;;;;;57.45;31.50;;;;;;;1.21;70.34;94131.83;1519937;91;21607;-49
2022/03/03 04:04:28;;;;;;;54.18;32.60;;;;;;;1.21;70.34;94127.77;1535550;92;21048;-50
2022/03/03 04:06:57;;;;;;;46.48;28.17;;;;;;;1.21;70.39;94125.63;1530998;91;21094;-50
2022/03/03 04:09:25;;;;;;;47.95;28.67;;;;;;;1.25;70.93;94129.84;1537148;92;21415;-50
2022/03/03 04:11:52;;;;;;;53.15;29.07;;;;;;;1.35;70.50;94123.53;1531300;92;21615;-50
2022/03/03 04:14:20;;;;;;;52.13;30.75;;;;;;;1.38;70.57;94126.81;1527289;92;21064;-49
2022/03/03 04:16:47;;;;;;;58.33;34.08;;;;;;;1.44;70.26;94123.05;1529966;92;21171;-50
2022/03/03 04:19:15;;;;;;;68.65;37.85;;;;;;;1.43;70.34;94121.52;1532090;93;21110;-50
2022/03/03 04:21:43;;;;;;;79.75;45.28;;;;;;;1.53;70.64;94120.03;1518089;93;21446;-50
2022/03/03 04:24:11;;;;;;;68.70;39.95;;;;;;;1.62;70.07;94111.42;1534180;93;21184;-50
2022/03/03 04:26:40;;;;;;;56.63;34.50;;;;;;;1.60;69.76;94115.91;1534063;92;20999;-49
2022/03/03 04:29:08;;;;;;;57.75;34.67;;;;;;;1.52;69.81;94121.21;1529764;92;21543;-50
2022/03/03 04:31:35;;;;;;;120.50;63.68;;;;;;;1.53;70.09;94115.97;1531541;93;21131;-49
2022/03/03 04:34:03;;;;;;;79.60;45.50;;;;;;;1.48;69.86;94111.00;1532686;93;21072;-55
2022/03/03 04:36:30;;;;;;;57.88;35.52;;;;;;;1.43;70.00;94111.45;1517469;93;21588;-56
2022/03/03 04:38:57;;;;;;;48.23;31.68;;;;;;;1.39;70.18;94111.30;1532520;91;21106;-48
2022/03/03 04:41:24;;;;;;;49.50;32.85;;;;;;;1.36;70.33;94108.05;1529753;93;21143;-49
2022/03/03 04:43:51;;;;;;;51.70;33.63;;;;;;;1.29;70.26;94108.90;1530620;92;21078;-50
2022/03/03 04:46:18;;;;;;;46.28;29.75;;;;;;;1.25;70.48;94109.53;1534619;92;21007;-51
2022/03/03 04:48:46;;;;;;;40.03;27.65;;;;;;;1.24;70.70;94118.05;1531173;91;21516;-49
2022/03/03 04:51:14;;;;;;;32.70;21.65;;;;;;;1.23;70.58;94113.80;1533146;93;21108;-52
2022/03/03 04:53:41;;;;;;;29.70;21.07;;;;;;;1.18;70.59;94112.30;1531549;93;21139;-50
2022/03/03 04:56:10;;;;;;;37.05;23.07;;;;;;;1.13;70.76;94109.28;1530088;91;21020;-49
2022/03/03 04:58:40;;;;;;;34.20;23.95;;;;;;;1.12;70.92;94116.62;1527971;92;21585;-50
2022/03/03 05:01:07;;;;;;;33.30;21.20;;;;;;;1.13;71.05;94124.92;1540397;91;21094;-50
2022/03/03 05:03:35;;;;;;;38.45;25.32;;;;;;;1.13;71.08;94115.45;1530854;92;21083;-50
2022/03/03 05:06:02;;;;;;;34.55;24.85;;;;;;;1.12;71.16;94116.62;1533970;91;21181;-49
2022/03/03 05:08:30;;;;;;;40.03;27.35;;;;;;;1.25;71.64;94118.22;1528467;91;21099;-50
2022/03/03 05:10:59;;;;;;;45.63;32.58;;;;;;;1.45;71.46;94117.23;1525388;91;21146;-49
2022/03/03 05:13:27;;;;;;;56.20;37.50;;;;;;;1.62;70.89;94113.55;1531608;92;21639;-49
2022/03/03 05:15:54;;;;;;;67.17;41.58;;;;;;;1.74;70.28;94119.81;1537804;91;21079;-50
2022/03/03 05:18:23;;;;;;;65.12;40.85;;;;;;;1.76;69.91;94114.74;1531041;91;21183;-56
2022/03/03 05:20:50;;;;;;;53.87;34.00;;;;;;;1.75;69.68;94111.85;1529011;93;21604;-52
2022/03/03 05:23:19;;;;;;;51.18;30.95;;;;;;;1.79;69.81;94109.86;1530552;93;21135;-49
2022/03/03 05:25:46;;;;;;;53.48;31.52;;;;;;;1.83;69.50;94115.42;1526546;93;21552;-52
2022/03/03 05:28:14;;;;;;;46.35;29.65;;;;;;;1.81;69.37;94115.04;1522547;93;21050;-52
2022/03/03 05:30:41;;;;;;;56.23;32.03;;;;;;;1.81;69.21;94115.64;1524358;92;21874;-50
2022/03/03 05:33:08;;;;;;;51.45;30.10;;;;;;;1.78;69.13;94113.75;1527635;93;21087;-53
2022/03/03 05:35:37;;;;;;;50.33;29.85;;;;;;;1.78;69.38;94119.92;1528727;93;21064;-51
2022/03/03 05:38:04;;;;;;;58.68;33.78;;;;;;;1.82;69.28;94118.53;1524070;93;21608;-53
2022/03/03 05:40:32;;;;;;;85.62;47.75;;;;;;;1.81;69.34;94116.39;1519125;94;20994;-49
2022/03/03 05:42:59;;;;;;;116.05;61.58;;;;;;;1.79;69.31;94112.57;1524690;93;21173;-50
2022/03/03 05:45:27;;;;;;;112.57;61.77;;;;;;;1.83;69.44;94115.42;1521098;93;21009;-50
2022/03/03 05:47:54;;;;;;;154.60;78.42;;;;;;;1.82;69.31;94117.17;1524067;93;21474;-51
2022/03/03 05:50:21;;;;;;;115.20;62.43;;;;;;;1.82;69.45;94116.60;1522934;93;20998;-50
2022/03/03 05:52:49;;;;;;;81.45;48.85;;;;;;;1.84;69.22;94116.18;1522131;92;21080;-51
2022/03/03 05:55:16;;;;;;;65.65;40.33;;;;;;;1.84;69.42;94116.18;1521366;93;21574;-51
2022/03/03 05:57:45;;;;;;;54.05;33.20;;;;;;;1.86;69.29;94114.61;1526774;92;22217;-52
2022/03/03 06:00:16;;;;;;;58.13;36.20;;;;;;;1.87;69.08;94118.08;1525642;93;21059;-51
2022/03/03 06:02:50;;;;;;;65.40;37.45;;;;;;;1.92;69.57;94110.86;1527394;92;21097;-51
2022/03/03 06:05:20;;;;;;;60.73;38.02;;;;;;;2.07;69.35;94110.26;1524244;92;21008;-53
2022/03/03 06:07:52;;;;;;;74.27;44.05;;;;;;;2.29;69.08;94108.02;1527454;92;21209;-62
2022/03/03 06:10:23;;;;;;;73.52;42.30;;;;;;;2.48;68.57;94110.06;1523342;93;21124;-53
2022/03/03 06:13:11;;;;;;;72.73;45.60;;;;;;;2.63;67.93;94113.49;1522954;93;21105;-55
2022/03/03 06:15:38;;;;;;;68.67;42.20;;;;;;;2.72;67.45;94114.33;1521432;93;21082;-53
2022/03/03 06:18:06;;;;;;;70.83;42.75;;;;;;;2.80;67.04;94117.87;1522892;93;21022;-51
2022/03/03 06:20:34;;;;;;;62.43;38.17;;;;;;;2.80;66.82;94108.95;1542808;91;21129;-52
2022/03/03 06:23:03;;;;;;;69.97;44.77;;;;;;;2.84;66.75;94113.75;1527302;92;21107;-50
2022/03/03 06:25:32;;;;;;;75.40;47.70;;;;;;;2.83;66.52;94115.69;1555478;90;21053;-50
2022/03/03 06:28:00;;;;;;;69.12;43.38;;;;;;;2.82;66.75;94106.01;1551389;90;21094;-52
2022/03/03 06:30:31;;;;;;;69.25;43.92;;;;;;;2.95;66.46;94104.81;1552814;90;21481;-50
2022/03/03 06:32:58;;;;;;;90.17;54.65;;;;;;;3.05;65.97;94110.06;1555139;90;21139;-51
2022/03/03 06:35:26;;;;;;;68.37;43.05;;;;;;;3.18;65.92;94118.38;1554458;90;21116;-50
2022/03/03 06:37:54;;;;;;;59.03;34.13;;;;;;;3.27;65.05;94109.86;1550725;91;21095;-50
2022/03/03 06:40:21;;;;;;;40.73;28.38;;;;;;;3.23;64.68;94116.56;1529438;91;21272;-51
2022/03/03 06:42:50;;;;;;;34.13;23.77;;;;;;;3.17;64.27;94116.84;1554617;90;21073;-53
2022/03/03 06:45:17;;;;;;;31.95;21.37;;;;;;;3.13;63.75;94116.15;1542526;90;21964;-50
2022/03/03 06:47:46;;;;;;;33.55;23.85;;;;;;;2.99;63.65;94110.38;1554929;90;21615;-51
2022/03/03 06:50:13;;;;;;;44.53;29.65;;;;;;;2.99;63.79;94110.95;1549499;90;21081;-52
2022/03/03 06:52:40;;;;;;;39.90;28.87;;;;;;;2.99;63.78;94112.31;1551459;90;21478;-52
2022/03/03 06:55:10;;;;;;;35.73;25.77;;;;;;;2.94;64.04;94101.92;1541437;91;21147;-51
2022/03/03 06:57:39;;;;;;;40.87;28.63;;;;;;;3.03;63.99;94106.25;1536635;90;21127;-52
2022/03/03 07:00:09;;;;;;;32.98;21.40;;;;;;;3.07;63.84;94109.66;1536447;92;21529;-53
2022/03/03 07:02:37;;;;;;;27.73;19.48;;;;;;;3.26;63.33;94103.50;1530734;91;21086;-54
2022/03/03 07:05:06;;;;;;;26.33;17.73;;;;;;;3.42;62.57;94100.88;1544178;90;21086;-56
2022/03/03 07:07:35;;;;;;;55.52;39.35;;;;;;;3.61;62.08;94102.23;1531201;90;21064;-58
2022/03/03 07:10:02;;;;;;;50.17;36.33;;;;;;;3.73;61.90;94102.36;1547985;90;21878;-56
2022/03/03 07:12:29;;;;;;;32.70;26.17;;;;;;;3.79;61.03;94106.15;1544619;91;22083;-56
2022/03/03 07:14:57;;;;;;;32.67;19.17;;;;;;;3.81;60.52;94103.77;1539462;92;21158;-57
2022/03/03 07:17:47;;;;;;;27.42;20.37;;;;;;;3.88;60.07;94096.81;1530669;91;21104;-58
2022/03/03 07:20:20;;;;;;;26.77;18.77;;;;;;;3.82;60.00;94101.22;1542001;91;21099;-56
2022/03/03 07:23:04;;;;;;;26.27;19.27;;;;;;;3.81;59.86;94099.69;1539074;90;21088;-59
2022/03/03 07:25:46;;;;;;;30.97;20.60;;;;;;;3.68;60.04;94106.19;1540269;90;21091;-59
2022/03/03 07:28:14;;;;;;;27.52;18.80;;;;;;;3.59;60.71;94104.02;1528501;92;21219;-63
2022/03/03 07:30:43;;;;;;;23.80;17.30;;;;;;;3.74;60.99;94105.28;1535865;91;21546;-57
2022/03/03 07:33:19;;;;;;;23.60;16.65;;;;;;;3.88;60.37;94105.58;1537145;90;21148;-60
2022/03/03 07:35:50;;;;;;;22.90;16.00;;;;;;;3.88;60.03;94104.98;1556450;89;22032;-58
2022/03/03 07:38:22;;;;;;;36.33;22.62;;;;;;;3.80;59.99;94105.54;1542614;91;21095;-59
2022/03/03 07:40:49;;;;;;;62.08;33.05;;;;;;;3.80;60.34;94102.23;1549427;91;21045;-62
2022/03/03 07:43:17;;;;;;;61.70;33.70;;;;;;;4.02;60.66;94099.86;1552808;90;21843;-56
2022/03/03 07:45:45;;;;;;;39.73;24.77;;;;;;;4.22;60.42;94091.81;1535830;90;22031;-61
2022/03/03 07:48:13;;;;;;;27.80;18.98;;;;;;;4.40;59.92;94092.19;1542626;90;21188;-59
2022/03/03 07:50:41;;;;;;;24.75;15.53;;;;;;;4.62;59.42;94095.20;1541488;90;21128;-57
2022/03/03 07:53:11;;;;;;;20.20;13.80;;;;;;;4.85;58.20;94090.94;1544930;90;21290;-55
2022/03/03 07:55:48;;;;;;;18.80;14.20;;;;;;;4.96;57.83;94086.00;1545290;90;21093;-59
2022/03/03 07:58:18;;;;;;;21.42;15.55;;;;;;;5.11;57.20;94076.28;1548733;90;21556;-57
2022/03/03 08:00:53;;;;;;;20.60;14.15;;;;;;;5.23;56.39;94074.20;1546676;90;22013;-58
2022/03/03 08:03:22;;;;;;;26.97;17.65;;;;;;;5.27;55.20;94076.40;1536004;91;21514;-62
2022/03/03 08:05:52;;;;;;;23.45;15.90;;;;;;;5.22;55.60;94080.84;1536257;91;21167;-62
2022/03/03 08:08:25;;;;;;;16.67;12.15;;;;;;;5.24;54.99;94077.88;1533930;90;21583;-60
2022/03/03 08:10:59;;;;;;;18.30;13.72;;;;;;;5.17;54.23;94082.73;1545463;91;21123;-61
2022/03/03 08:13:28;;;;;;;20.97;15.45;;;;;;;5.12;54.42;94078.56;1539091;91;21100;-61
2022/03/03 08:15:56;;;;;;;17.98;13.95;;;;;;;5.00;54.44;94073.80;1540946;90;21594;-58
2022/03/03 08:18:37;;;;;;;16.37;12.80;;;;;;;4.81;54.59;94077.39;1558623;89;21063;-59
2022/03/03 08:21:05;;;;;;;16.77;12.88;;;;;;;4.70;54.94;94080.20;1556383;89;21104;-61
2022/03/03 08:23:33;;;;;;;16.93;13.62;;;;;;;4.62;54.98;94078.86;1540881;90;21075;-58
2022/03/03 08:26:01;;;;;;;18.10;13.43;;;;;;;4.57;55.39;94078.01;1539815;91;21652;-61
2022/03/03 08:28:31;;;;;;;32.13;20.65;;;;;;;4.54;55.15;94083.70;1537704;91;21233;-66
2022/03/03 08:31:04;;;;;;;59.83;36.77;;;;;;;4.47;55.81;94082.52;1522648;90;21124;-59
2022/03/03 08:33:40;;;;;;;93.62;55.50;;;;;;;4.57;56.50;94075.28;1518223;91;21052;-58
2022/03/03 08:36:17;;;;;;;75.60;46.80;;;;;;;4.62;57.52;94074.77;1523297;92;21193;-62
2022/03/03 08:38:52;;;;;;;76.95;47.17;;;;;;;4.72;57.82;94072.38;1527180;92;21754;-58
2022/03/03 08:41:22;;;;;;;95.05;53.52;;;;;;;4.77;57.98;94069.91;1532982;90;21160;-56
2022/03/03 08:43:53;;;;;;;79.17;47.98;;;;;;;4.82;58.09;94069.38;1542852;91;21131;-61
2022/03/03 08:46:25;;;;;;;91.02;53.28;;;;;;;4.90;58.00;94065.31;1532320;90;21128;-58
2022/03/03 08:48:53;;;;;;;92.37;53.55;;;;;;;4.88;58.04;94063.61;1540180;90;21037;-59
2022/03/03 08:51:21;;;;;;;85.55;52.67;;;;;;;4.98;57.97;94063.92;1563854;90;21180;-59
2022/03/03 08:53:48;;;;;;;89.35;54.40;;;;;;;5.02;57.70;94061.91;1542336;92;21188;-57
2022/03/03 08:56:16;;;;;;;67.45;42.20;;;;;;;4.92;57.68;94060.20;1529016;90;21091;-57
2022/03/03 08:58:44;;;;;;;103.70;57.45;;;;;;;4.84;57.91;94055.34;1518353;92;21151;-61
2022/03/03 09:01:11;;;;;;;117.15;66.55;;;;;;;4.79;57.69;94054.51;1534227;90;21409;-56
2022/03/03 09:03:40;;;;;;;107.60;61.13;;;;;;;4.81;57.66;94062.41;1538675;90;21162;-56
2022/03/03 09:06:08;;;;;;;79.15;47.03;;;;;;;4.84;57.74;94058.85;1530939;91;21552;-61
2022/03/03 09:08:35;;;;;;;55.12;35.33;;;;;;;4.86;57.91;94066.00;1532727;90;21090;-59
2022/03/03 09:11:30;;;;;;;48.28;31.62;;;;;;;4.88;58.06;94059.52;1534129;90;21262;-59
2022/03/03 09:14:02;;;;;;;54.55;35.65;;;;;;;4.95;58.04;94056.61;1562370;90;21127;-57
2022/03/03 09:16:30;;;;;;;55.10;36.93;;;;;;;4.96;58.05;94056.78;1541578;90;21146;-61
2022/03/03 09:19:00;;;;;;;46.83;31.65;;;;;;;5.07;58.05;94055.92;1534077;90;21169;-60
2022/03/03 09:21:28;;;;;;;50.33;33.92;;;;;;;5.21;57.46;94048.75;1537841;91;21157;-54
2022/03/03 09:23:55;;;;;;;52.67;34.73;;;;;;;5.23;57.17;94059.38;1530476;90;21170;-58
2022/03/03 09:26:32;;;;;;;33.10;21.33;;;;;;;5.22;56.95;94048.91;1548512;90;21052;-56
2022/03/03 09:29:08;;;;;;;20.77;14.07;;;;;;;5.19;55.07;94059.29;1533352;90;21158;-59
2022/03/03 09:31:58;;;;;;;15.98;11.80;;;;;;;4.96;54.36;94060.86;1534025;90;21027;-59
2022/03/03 09:34:33;;;;;;;15.05;10.93;;;;;;;4.86;54.28;94060.55;1538265;90;21162;-59
2022/03/03 09:37:01;;;;;;;13.70;11.40;;;;;;;4.87;53.61;94059.94;1529385;91;22117;-58
2022/03/03 09:39:29;;;;;;;15.80;11.88;;;;;;;4.73;53.87;94055.61;1545410;90;21123;-58
2022/03/03 09:41:57;;;;;;;15.80;12.30;;;;;;;4.64;54.47;94056.79;1540565;91;21213;-58
2022/03/03 09:44:26;;;;;;;13.48;11.12;;;;;;;4.57;54.69;94059.70;1540139;90;21594;-59
2022/03/03 09:46:59;;;;;;;15.20;11.83;;;;;;;4.50;54.65;94069.41;1540532;90;21124;-59
2022/03/03 09:49:31;;;;;;;15.15;11.45;;;;;;;4.39;54.96;94063.42;1527649;91;21136;-59
2022/03/03 09:52:13;;;;;;;12.85;10.65;;;;;;;4.30;55.47;94068.70;1542204;90;21663;-60
2022/03/03 09:54:44;;;;;;;17.62;11.95;;;;;;;4.24;56.37;94061.45;1531653;90;21237;-57
2022/03/03 09:57:12;;;;;;;16.30;12.85;;;;;;;4.40;56.71;94064.95;1534212;90;21466;-60
2022/03/03 09:59:42;;;;;;;13.38;11.12;;;;;;;4.57;56.40;94061.05;1540482;90;21117;-60
2022/03/03 10:02:15;;;;;;;12.40;10.15;;;;;;;4.69;56.37;94068.56;1533527;90;21079;-61
2022/03/03 10:04:43;;;;;;;15.63;11.50;;;;;;;4.87;55.86;94074.92;1543862;91;21586;-60
2022/03/03 10:07:10;;;;;;;16.55;12.15;;;;;;;4.97;55.92;94076.64;1554095;90;21268;-59
2022/03/03 10:12:30;;;;;;;10.63;9.38;;;;;;;4.81;56.67;94064.37;1534761;91;21146;-59
2022/03/03 10:15:04;;;;;;;14.45;10.30;;;;;;;4.69;56.52;94061.75;1506224;90;21072;-58
2022/03/03 10:17:38;;;;;;;16.42;10.88;;;;;;;4.57;57.29;94059.70;1537461;90;21309;-60
2022/03/03 10:20:11;;;;;;;14.03;10.72;;;;;;;4.54;58.08;94064.63;1538632;91;21257;-57
2022/03/03 10:22:59;;;;;;;13.20;10.35;;;;;;;4.58;58.11;94065.31;1543204;90;21100;-56
2022/03/03 10:25:42;;;;;;;12.93;10.48;;;;;;;4.64;57.67;94066.94;1539865;90;21060;-58
2022/03/03 10:28:28;;;;;;;10.68;8.85;;;;;;;4.51;57.11;94066.85;1530689;90;21590;-58
2022/03/03 10:31:11;;;;;;;14.65;9.93;;;;;;;4.34;57.69;94056.35;1531560;90;21647;-63
2022/03/03 10:33:55;;;;;;;14.73;11.40;;;;;;;4.44;57.73;94053.99;1544645;90;21198;-54
2022/03/03 10:36:43;;;;;;;12.37;9.63;;;;;;;4.64;57.11;94055.42;1536252;91;21132;-62
2022/03/03 10:39:50;;;;;;;13.35;10.45;;;;;;;4.87;56.72;94047.09;1557315;89;21107;-59
2022/03/03 10:42:24;;;;;;;15.08;11.65;;;;;;;5.11;55.98;94042.96;1527074;90;21136;-57
2022/03/03 10:45:29;;;;;;;11.70;8.80;;;;;;;5.36;55.17;94037.61;1531225;90;21247;-59
2022/03/03 10:48:09;;;;;;;13.25;10.35;;;;;;;5.51;54.01;94036.02;1542405;90;26420;-59
2022/03/03 10:50:55;;;;;;;10.75;9.25;;;;;;;5.59;54.03;94036.02;1541834;90;21175;-59
2022/03/03 10:53:43;;;;;;;12.55;9.30;;;;;;;5.77;53.56;94032.19;1540814;90;21550;-58
2022/03/03 10:56:25;;;;;;;12.75;9.75;;;;;;;5.88;53.64;94029.34;1521894;91;21241;-58
2022/03/03 10:59:23;;;;;;;15.78;10.45;;;;;;;5.96;53.44;94024.44;1526455;91;21138;-57
2022/03/03 11:02:15;;;;;;;14.23;10.45;;;;;;;5.96;54.10;94023.08;1542001;90;21147;-62
2022/03/03 11:04:59;;;;;;;11.63;9.40;;;;;;;5.90;53.99;94020.12;1539527;91;21102;-54
2022/03/03 11:08:07;;;;;;;15.48;11.70;;;;;;;5.88;54.09;94013.55;1535554;91;21088;-56
2022/03/03 11:11:42;;;;;;;14.33;11.10;;;;;;;5.78;54.25;94011.88;1536101;91;21620;-59
2022/03/03 11:15:10;;;;;;;16.40;11.68;;;;;;;5.54;54.55;94013.34;1518168;91;21101;-58
2022/03/03 11:18:05;;;;;;;11.57;9.33;;;;;;;5.28;55.76;94009.76;1528974;91;21130;-60
2022/03/03 11:21:21;;;;;;;15.15;9.80;;;;;;;5.36;55.95;94011.70;1528707;92;21171;-61
2022/03/03 11:27:09;;;;;;;16.17;10.53;;;;;;;5.47;55.54;94004.00;1532621;90;21064;-60
2022/03/03 11:30:37;;;;;;;12.03;8.48;;;;;;;5.67;54.32;93999.91;1525721;91;21606;-61
2022/03/03 11:33:43;;;;;;;10.40;8.75;;;;;;;5.75;53.65;93994.41;1534110;91;21186;-57
2022/03/03 11:42:50;;;;;;;22.48;14.00;;;;;;;5.51;53.37;93986.92;1517506;91;21174;-61
2022/03/03 11:45:34;;;;;;;14.07;10.75;;;;;;;5.50;52.80;93990.86;1525660;90;21059;-61
2022/03/03 11:51:31;;;;;;;12.98;9.58;;;;;;;5.44;53.20;93991.23;1525208;90;21094;-60
2022/03/03 11:54:30;;;;;;;12.23;8.90;;;;;;;5.29;53.49;93992.23;1528107;92;21053;-58
2022/03/03 11:57:15;;;;;;;11.68;10.30;;;;;;;5.16;53.64;93992.61;1524769;91;21505;-60
2022/03/03 12:00:01;;;;;;;10.80;8.75;;;;;;;5.11;54.10;93983.61;1533346;90;21926;-57
2022/03/03 12:02:32;;;;;;;11.53;8.55;;;;;;;5.13;54.26;93986.05;1519732;90;21154;-60
2022/03/03 12:05:43;;;;;;;9.63;7.80;;;;;;;5.10;54.46;93984.77;1526002;92;21126;-56
2022/03/03 12:08:48;;;;;;;15.98;11.05;;;;;;;5.15;54.86;93982.29;1541405;91;21123;-65